HOURLY OBS INDEX

014

Northern Rivers

BATCHELOR AIRPORT

Site: 014272
Alt: 104.0m
1km SSW of BATCHELOR


  Time     Wind        Temp  DP   Baro     Rain since   Rain past  Vis(m), Cloud(base in m), Weather
  local        km/h                         9am  last   hr   10m    
Tue 19:30  SSE  7/ 11  27.3 10.5  1015.3    0.0   0.0   0.0   0.0   ----- 
Tue 20:00  SSE  6/  9  26.8 10.1  1015.5    0.0   0.0   0.0   0.0   ----- 
Tue 20:30  SSE  7/  9  26.2  9.5  1015.7    0.0   0.0   0.0   0.0   ----- 
Tue 21:00  SSE  6/  9  25.7  9.1  1016.2    0.0   0.0   0.0   0.0   ----- 
Tue 21:30  SSE  6/  9  25.4  9.3  1016.5    0.0   0.0   0.0   0.0   ----- 
Tue 22:00  SSE  7/ 13  25.9  9.3  1016.6    0.0   0.0   0.0   0.0   ----- 
Tue 22:30   SE  7/ 11  24.8  8.7  1016.7    0.0   0.0   0.0   0.0   ----- 
Tue 23:00   SE  7/  9  24.2  9.0  1016.8    0.0   0.0   0.0   0.0   ----- 
Tue 23:30   SE  7/ 11  25.6  9.0  1016.9    0.0   0.0   0.0   0.0   ----- 
Wed 00:00   SE  7/  9  25.2  8.7  1016.7    0.0   0.0   0.0   0.0   ----- 
Wed 00:30   SE  9/ 13  25.2  8.7  1016.8    0.0   0.0   0.0   0.0   ----- 
Wed 00:30   SE  9/ 13  25.2  8.7  1016.8    0.0   0.0  ----   0.0   ----- 

BORROLOOLA AIRPORT

Site: 014723
Alt: 16.1m
1km SSE of BORROLOOLA


  Time     Wind        Temp  DP   Baro     Rain since   Rain past  Vis(m), Cloud(base in m), Weather
  local        km/h                         9am  last   hr   10m    
Tue 19:30   NE 13/ 15  20.6  7.9  1017.8    0.0   0.0   0.0   0.0   ----- 
Tue 20:00   NE  6/  7  19.5  7.9  1018.2    0.0   0.0   0.0   0.0   ----- 
Tue 20:30    E  4/  6  18.2  7.3  1018.5    0.0   0.0   0.0   0.0   ----- 
Tue 21:00    C  0/  0  15.9  5.5  1018.4    0.0   0.0   0.0   0.0   ----- 
Tue 21:30    C  0/  0  15.8  8.1  1018.5    0.0   0.0   0.0   0.0   ----- 
Tue 22:00    C  0/  0  14.6  8.1  1018.4    0.0   0.0   0.0   0.0   ----- 
Tue 22:30    C  0/  0  13.4  7.0  1018.6    0.0   0.0   0.0   0.0   ----- 
Tue 23:00    C  0/  0  12.7  6.5  1018.7    0.0   0.0   0.0   0.0   ----- 
Tue 23:30    C  0/  0  12.9  7.6  1018.4    0.0   0.0   0.0   0.0   ----- 
Wed 00:00    C  0/  0  12.3  7.0  1018.2    0.0   0.0   0.0   0.0   ----- 
Wed 00:30    C  0/  0  11.4  6.5  1018.3    0.0   0.0   0.0   0.0   ----- 
Wed 00:30    C  0/  0  11.4  6.5  1018.3    0.0   0.0  ----   0.0   ----- 

BRADSHAW

Site: 014954
Alt: 75.0m
133km S of NAUIYU (DALY RIVER)


  Time     Wind        Temp  DP   Baro     Rain since   Rain past  Vis(m), Cloud(base in m), Weather
  local        km/h                         9am  last   hr   10m    
Tue 19:30    W  4/  9  24.4  4.7  1016.9    0.0   0.0   0.0   0.0   ----- 
Tue 20:00    C  0/  4  23.4  4.9  1017.2    0.0   0.0   0.0   0.0   ----- 
Tue 20:30    W  7/  7  21.8  4.8  1017.7    0.0   0.0   0.0   0.0   ----- 
Tue 21:00    W  7/ 11  21.7  4.7  1018.0    0.0   0.0   0.0   0.0   ----- 
Tue 21:30    W  6/  7  20.7  3.9  1018.2    0.0   0.0   0.0   0.0   ----- 
Tue 22:00    C  0/  0  21.2  3.9  1018.4    0.0   0.0   0.0   0.0   ----- 
Tue 22:30    C  0/  0  19.3  3.9  1018.8    0.0   0.0   0.0   0.0   ----- 
Tue 23:00    C  0/  2  19.5  4.0  1018.8    0.0   0.0   0.0   0.0   ----- 
Tue 23:30    C  0/  0  19.4  3.2  1018.6    0.0   0.0   0.0   0.0   ----- 
Wed 00:00    C  0/  0  18.4  3.8  1018.6    0.0   0.0   0.0   0.0   ----- 
Wed 00:30  NNE  4/  6  17.9  4.1  1018.4    0.0   0.0   0.0   0.0   ----- 
Wed 00:30  NNE  4/  6  17.9  4.1  1018.4    0.0   0.0  ----   0.0   ----- 

BRADSHAW-ANGALLARI VALLEY (DEFENCE)

Site: 014808
Alt: 60.0m
183km ENE of KUNUNURRA


  Time     Wind        Temp  DP   Baro     Rain since   Rain past  Vis(m), Cloud(base in m), Weather
  local        km/h                         9am  last   hr   10m    
Tue 19:30    S  4/  6  23.1----  1016.8    0.0   0.0   0.0   0.0   ----- 
Tue 20:00    S  2/  4  22.1----  1017.2    0.0   0.0   0.0   0.0   ----- 
Tue 20:30    S  4/  6  21.4----  1017.6    0.0   0.0   0.0   0.0   ----- 
Tue 21:00    S  4/  6  21.0----  1017.7    0.0   0.0   0.0   0.0   ----- 
Tue 21:30    S  4/  7  20.3----  1018.0    0.0   0.0   0.0   0.0   ----- 
Tue 22:00  SSE  4/  7  21.3----  1018.3    0.0   0.0   0.0   0.0   ----- 
Tue 22:30   SE  4/  7  22.3----  1018.1    0.0   0.0   0.0   0.0   ----- 
Tue 23:00    N  4/  4  20.2----  1018.2    0.0   0.0   0.0   0.0   ----- 
Tue 23:30   NW  4/  6  19.4----  1018.2    0.0   0.0   0.0   0.0   ----- 
Wed 00:00    C  0/  2  17.8----  1018.3    0.0   0.0   0.0   0.0   ----- 
Wed 00:30   NW  2/  2  16.6----  1018.3    0.0   0.0   0.0   0.0   ----- 
Wed 00:30   NW  2/  2  16.6----  1018.3    0.0   0.0  ----   0.0   ----- 

BULMAN

Site: 014627
Alt: 103.4m
192km SE of JABIRU


  Time     Wind        Temp  DP   Baro     Rain since   Rain past  Vis(m), Cloud(base in m), Weather
  local        km/h                         9am  last   hr   10m    
Tue 19:30  ESE  7/ 11  24.2 10.5  1017.3    0.0   0.0   0.0   0.0   ----- 
Tue 20:00  ESE  7/ 11  23.6 10.3  1017.7    0.0   0.0   0.0   0.0   ----- 
Tue 20:30  ESE  6/  9  22.7 10.8  1018.0    0.0   0.0   0.0   0.0   ----- 
Tue 21:00  ESE  7/ 11  22.2 11.3  1018.2    0.0   0.0   0.0   0.0   ----- 
Tue 21:30  ESE  9/ 15  22.0 12.0  1018.6    0.0   0.0   0.0   0.0   ----- 
Tue 22:00  ESE  6/  9  21.3 11.9  1018.7    0.0   0.0   0.0   0.0   ----- 
Tue 22:30  ESE  6/  9  20.6 12.1  1018.4    0.0   0.0   0.0   0.0   ----- 
Tue 23:00    C  0/  2  19.8 11.8  1018.3    0.0   0.0   0.0   0.0   ----- 
Tue 23:30    E  4/  7  18.9 11.7  1018.3    0.0   0.0   0.0   0.0   ----- 
Wed 00:00    C  0/  6  18.5 11.3  1018.2    0.0   0.0   0.0   0.0   ----- 
Wed 00:30    C  0/  0  17.9 11.2  1018.3    0.0   0.0   0.0   0.0   ----- 
Wed 00:30    C  0/  0  17.9 11.2  1018.3    0.0   0.0  ----   0.0   ----- 

CENTRAL ARNHEM PLATEAU

Site: 014909
Alt: 416.0m
76km SSE of JABIRU


  Time     Wind        Temp  DP   Baro     Rain since   Rain past  Vis(m), Cloud(base in m), Weather
  local        km/h                         9am  last   hr   10m    
Tue 19:30  ESE 11/ 15  24.0  8.0  1018.1    0.0   0.0   0.0   0.0   ----- 
Tue 20:00    E 11/ 13  23.2  8.1  1018.5    0.0   0.0   0.0   0.0   ----- 
Tue 20:30  ESE 11/ 13  22.8  7.8  1018.7    0.0   0.0   0.0   0.0   ----- 
Tue 21:00  ESE  9/ 11  22.1  7.5  1019.1    0.0   0.0   0.0   0.0   ----- 
Tue 21:30  ESE 11/ 13  21.9  7.3  1019.3    0.0   0.0   0.0   0.0   ----- 
Tue 22:00  ESE 13/ 17  21.5  7.0  1019.2    0.0   0.0   0.0   0.0   ----- 
Tue 22:30    E 11/ 13  20.6  7.2  1019.3    0.0   0.0   0.0   0.0   ----- 
Tue 23:00  ESE 13/ 17  20.5  6.1  1019.4    0.0   0.0   0.0   0.0   ----- 
Tue 23:30   SE 13/ 17  20.6  5.4  1019.3    0.0   0.0   0.0   0.0   ----- 
Wed 00:00  ESE 13/ 17  20.1  5.4  1019.2    0.0   0.0   0.0   0.0   ----- 
Wed 00:30  ESE 15/ 19  19.9  5.9  1019.0    0.0   0.0   0.0   0.0   ----- 
Wed 00:30  ESE 15/ 19  19.9  5.9  1019.0    0.0   0.0  ----   0.0   ----- 

CENTRE ISLAND

Site: 014703
Alt: 12.2m
66km ENE of BORROLOOLA


  Time     Wind        Temp  DP   Baro     Rain since   Rain past  Vis(m), Cloud(base in m), Weather
  local        km/h                         9am  last   hr   10m    
Tue 19:30   NE  7/ 11  20.9 13.1  1017.5    0.0   0.0   0.0   0.0   ----- 
Tue 20:00  ENE  9/  9  20.4 12.6  1017.9    0.0   0.0   0.0   0.0   ----- 
Tue 20:30    E  7/  9  20.1 13.3  1018.0    0.0   0.0   0.0   0.0   ----- 
Tue 21:00    E 11/ 13  20.5 15.1  1018.1    0.0   0.0   0.0   0.0   ----- 
Tue 21:30   SE  9/ 11  20.2 15.2  1018.2    0.0   0.0   0.0   0.0   ----- 
Tue 22:00  SSE 11/ 13  20.3 16.3  1018.2    0.0   0.0   0.0   0.0   ----- 
Tue 22:30   SE  9/ 11  19.7 15.6  1018.3    0.0   0.0   0.0   0.0   ----- 
Tue 23:00   SE  9/ 11  19.7 16.2  1018.3    0.0   0.0   0.0   0.0   ----- 
Tue 23:30  SSE 13/ 15  19.8 16.3  1018.2    0.0   0.0   0.0   0.0   ----- 
Wed 00:00   SE  9/ 11  19.3 16.0  1018.0    0.0   0.0   0.0   0.0   ----- 
Wed 00:30    E  9/ 11  18.9 16.1  1017.9    0.0   0.0   0.0   0.0   ----- 
Wed 00:30    E  9/ 11  18.9 16.1  1017.9    0.0   0.0  ----   0.0   ----- 

CHARLES POINT

Site: 014031
Alt: 14.0m
24km WNW of DARWIN CBD


  Time     Wind        Temp  DP   Baro     Rain since   Rain past  Vis(m), Cloud(base in m), Weather
  local        km/h                         9am  last   hr   10m    
Tue 19:30    N  4/  7  26.2 18.9  1014.7    0.0   0.0   0.0   0.0   ----- 
Tue 20:00    N  4/  7  23.9 18.5  1015.0    0.0   0.0   0.0   0.0   ----- 
Tue 20:30  SSW  6/  7  23.6 18.7  1015.4    0.0   0.0   0.0   0.0   ----- 
Tue 21:00  SSW  6/  7  23.7 19.2  1015.8    0.0   0.0   0.0   0.0   ----- 
Tue 21:30  SSW  4/  6  23.3 19.2  1016.1    0.0   0.0   0.0   0.0   ----- 
Tue 22:00    S  7/ 13  24.1 19.6  1016.6    0.0   0.0   0.0   0.0   ----- 
Tue 22:30  SSW  6/  7  24.2 19.7  1016.5    0.0   0.0   0.0   0.0   ----- 
Tue 23:00  SSW  6/  7  24.3 19.1  1016.3    0.0   0.0   0.0   0.0   ----- 
Tue 23:30  SSW  6/  7  23.8 19.1  1016.2    0.0   0.0   0.0   0.0   ----- 
Wed 00:00  SSW  4/  7  24.1 19.4  1016.2    0.0   0.0   0.0   0.0   ----- 
Wed 00:30  SSW  4/  6  23.7 19.4  1016.2    0.0   0.0   0.0   0.0   ----- 
Wed 00:30  SSW  4/  6  23.7 19.4  1016.2    0.0   0.0  ----   0.0   ----- 

CROKER ISLAND AIRPORT

Site: 014308
Alt: 9.2m
173km NNW of JABIRU


  Time     Wind        Temp  DP   Baro     Rain since   Rain past  Vis(m), Cloud(base in m), Weather
  local        km/h                         9am  last   hr   10m    
Tue 19:30  ENE  6/  9  24.7 18.9  1014.6    0.0   0.0   0.0   0.0   ----- 
Tue 20:00    E  6/  9  24.2 19.1  1014.8    0.0   0.0   0.0   0.0   ----- 
Tue 20:30    E  9/ 11  24.2 19.7  1015.3    0.0   0.0   0.0   0.0   ----- 
Tue 21:00    E  7/  9  24.3 19.8  1015.5    0.0   0.0   0.0   0.0   ----- 
Tue 21:30    E  6/  9  24.4 19.7  1015.7    0.0   0.0   0.0   0.0   ----- 
Tue 22:00  ESE  4/  9  24.3 19.6  1015.9    0.0   0.0   0.0   0.0   ----- 
Tue 22:30    E  6/  7  24.1 20.0  1015.8    0.0   0.0   0.0   0.0   ----- 
Tue 23:00    E  7/  9  24.0 20.1  1015.7    0.0   0.0   0.0   0.0   ----- 
Tue 23:30    E  9/ 13  24.3 20.6  1015.6    0.0   0.0   0.0   0.0   ----- 
Wed 00:00    E 11/ 15  24.7 21.0  1015.3    0.0   0.0   0.0   0.0   ----- 
Wed 00:30    E 11/ 15  24.9 20.8  1015.3    0.0   0.0   0.0   0.0   ----- 
Wed 00:30    E 11/ 15  24.9 20.8  1015.3    0.0   0.0  ----   0.0   ----- 

DALY WATERS AIRSTRIP

Site: 014626
Alt: 209.8m
1km E of DALY WATERS


  Time     Wind        Temp  DP   Baro     Rain since   Rain past  Vis(m), Cloud(base in m), Weather
  local        km/h                         9am  last   hr   10m    
Tue 19:30   SE  4/  4  16.6  0.7  1018.0    0.0   0.0   0.0   0.0   ----- 
Tue 20:00  SSE  6/  7  15.0  2.2  1018.3    0.0   0.0   0.0   0.0   ----- 
Tue 20:30    S  4/  6  13.6  2.5  1018.6    0.0   0.0   0.0   0.0   ----- 
Tue 21:00    S  4/  6  12.5  2.9  1019.0    0.0   0.0   0.0   0.0   ----- 
Tue 21:30    S  4/  7  13.2  2.7  1019.1    0.0   0.0   0.0   0.0   ----- 
Tue 22:00    S  6/  7  12.6  1.3  1019.5    0.0   0.0   0.0   0.0   ----- 
Tue 22:30    S  6/  6  11.6  1.3  1019.6    0.0   0.0   0.0   0.0   ----- 
Tue 23:00    S  6/  6  10.5  1.6  1019.8    0.0   0.0   0.0   0.0   ----- 
Tue 23:30    S  2/  4   9.9  1.3  1019.7    0.0   0.0   0.0   0.0   ----- 
Wed 00:00    S  4/  6   9.0  1.7  1019.5    0.0   0.0   0.0   0.0   ----- 
Wed 00:30    C  0/  0   9.1  2.0  1019.4    0.0   0.0   0.0   0.0   ----- 
Wed 00:30    C  0/  0   9.1  2.0  1019.4    0.0   0.0  ----   0.0   ----- 

DARWIN AIRPORT

Site: 014015
Alt: 30.4m
7km NE of DARWIN CBD


  Time     Wind        Temp  DP   Baro     Rain since   Rain past  Vis(m), Cloud(base in m), Weather
  local        km/h                         9am  last   hr   10m    
Tue 19:30    N  6/  6  25.4 18.5  1014.7    0.0   0.0   0.0   0.0   10000 
Tue 20:00  NNE  4/  6  25.1 18.5  1015.0    0.0   0.0   0.0   0.0  *10000|md//SM 
Tue 20:00  NNE  4/  6  25.1 18.5  1015.0    0.0   0.0  ----   0.0  *10000|md//SM 
Tue 20:30    N  2/  6  24.6 17.5  1015.3    0.0   0.0   0.0   0.0  *10000|md//SM 
Tue 21:00  NNE  6/  6  24.1 17.3  1015.8    0.0   0.0   0.0   0.0   10000 
Tue 21:30    C  0/  0  24.5 18.0  1016.1    0.0   0.0   0.0   0.0  *10000|md//SM 
Tue 21:30    C  0/  0  24.5 18.0  1016.1    0.0   0.0  ----   0.0  *10000|md//SM 
Tue 22:00  SSW  9/ 11  24.3 20.1  1016.4    0.0   0.0   0.0   0.0  *10000|md//SM 
Tue 22:30   SW  9/ 13  24.4 20.1  1016.4    0.0   0.0   0.0   0.0   10000 
Tue 23:00  SSW  9/ 11  24.8 19.7  1016.3    0.0   0.0   0.0   0.0   10000|BR2220 
Tue 23:30   SW  6/  6  25.0 19.7  1016.3    0.0   0.0   0.0   0.0   10000|OC2220 
Wed 00:00    C  0/  0  23.9 19.7  1016.5    0.0   0.0   0.0   0.0  *10000|BR2280|md//SM 
Wed 00:30  ENE  7/  9  23.2 19.9  1016.5    0.0   0.0   0.0   0.0  * 8000|SC2280 
Wed 00:30  ENE  7/  9  23.2 19.9  1016.5    0.0   0.0  ----   0.0  * 8000|SC2280 

DARWIN NTC AWS

Site: 014072
Alt: 0.0m
1km S of DARWIN CBD


  Time     Wind        Temp  DP   Baro     Rain since   Rain past  Vis(m), Cloud(base in m), Weather
  local        km/h                         9am  last   hr   10m    
Tue 19:30  NNE 11/ 17 --------  1014.0   ----  ----  ----  ----   ----- 
Tue 20:00  WNW  4/  9 --------  1014.2   ----  ----  ----  ----   ----- 
Tue 20:30    W  2/  6 --------  1014.7   ----  ----  ----  ----   ----- 
Tue 21:00    W  4/  6 --------  1015.1   ----  ----  ----  ----   ----- 
Tue 21:30   SW 11/ 15 --------  1015.6   ----  ----  ----  ----   ----- 
Tue 22:00   SW 15/ 19 --------  1015.7   ----  ----  ----  ----   ----- 
Tue 22:30  WSW 11/ 15 --------  1015.8   ----  ----  ----  ----   ----- 
Tue 23:00  WSW 11/ 13 --------  1015.6   ----  ----  ----  ----   ----- 
Tue 23:30  WSW  9/ 13 --------  1015.5   ----  ----  ----  ----   ----- 
Wed 00:00   SW  6/  9 --------  1015.7   ----  ----  ----  ----   ----- 
Wed 00:30  ESE  4/  6 --------  1015.7   ----  ----  ----  ----   ----- 
Wed 00:30  ESE  4/  6 --------  1015.7   ----  ----  ----  ----   ----- 

DELAMERE WEAPONS RANGE

Site: 014949
Alt: 221.0m
165km WNW of DALY WATERS


  Time     Wind        Temp  DP   Baro     Rain since   Rain past  Vis(m), Cloud(base in m), Weather
  local        km/h                         9am  last   hr   10m    
Tue 19:30  SSE  9/ 11  23.8  3.7  1017.0    0.0   0.0   0.0   0.0   ----- 
Tue 20:00  SSE  9/ 11  23.3  3.3  1017.2    0.0   0.0   0.0   0.0   ----- 
Tue 20:30  SSE  9/ 11  22.1  3.3  1017.5    0.0   0.0   0.0   0.0   ----- 
Tue 21:00    S  9/ 11  21.5  3.2  1017.8    0.0   0.0   0.0   0.0   ----- 
Tue 21:30    S 11/ 13  20.4  3.2  1018.2    0.0   0.0   0.0   0.0   ----- 
Tue 22:00    S 13/ 17  21.0  2.3  1018.6    0.0   0.0   0.0   0.0   ----- 
Tue 22:30  SSE 11/ 17  21.1  0.9  1018.6    0.0   0.0   0.0   0.0   ----- 
Tue 23:00  SSE 11/ 15  20.9 -0.4  1018.5    0.0   0.0   0.0   0.0   ----- 
Tue 23:30  ESE  7/  9  20.1 -0.5  1018.5    0.0   0.0   0.0   0.0   ----- 
Wed 00:00    E  7/  7  18.0 -0.3  1018.4    0.0   0.0   0.0   0.0   ----- 
Wed 00:30   SE 11/ 15  18.9 -0.5  1018.5    0.0   0.0   0.0   0.0   ----- 
Wed 00:30   SE 11/ 15  18.9 -0.5  1018.5    0.0   0.0  ----   0.0   ----- 

DOUGLAS RIVER RESEARCH FARM

Site: 014901
Alt: 42.8m
55km E of NAUIYU (DALY RIVER)


  Time     Wind        Temp  DP   Baro     Rain since   Rain past  Vis(m), Cloud(base in m), Weather
  local        km/h                         9am  last   hr   10m    
Tue 19:30  SSE  9/  9  23.3 12.0  1015.7    0.0   0.0   0.0   0.0   ----- 
Tue 20:00  SSE  9/  9  22.3 12.0  1016.0    0.0   0.0   0.0   0.0   ----- 
Tue 20:30  SSE  9/  9  21.9 12.2  1016.3    0.0   0.0   0.0   0.0   ----- 
Tue 21:00  SSE  9/ 11  21.6 12.2  1016.6    0.0   0.0   0.0   0.0   ----- 
Tue 21:30  SSE  6/  9  20.9 11.8  1016.7    0.0   0.0   0.0   0.0   ----- 
Tue 22:00  SSE  7/ 11  19.9 12.7  1016.9    0.0   0.0   0.0   0.0   ----- 
Tue 22:30  SSE  7/  9  19.3 12.3  1017.0    0.0   0.0   0.0   0.0   ----- 
Tue 23:00  SSE  9/ 13  18.6 12.4  1016.9    0.0   0.0   0.0   0.0   ----- 
Tue 23:30  SSE 11/ 15  18.4 12.2  1017.0    0.0   0.0   0.0   0.0   ----- 
Wed 00:00  ESE  6/  7  19.4 12.4  1016.9    0.0   0.0   0.0   0.0   ----- 
Wed 00:30    C  0/  0  19.2 12.5  1017.0    0.0   0.0   0.0   0.0   ----- 
Wed 00:30    C  0/  0  19.2 12.5  1017.0    0.0   0.0  ----   0.0   ----- 

DUM IN MIRRIE AIRSTRIP

Site: 014277
Alt: 3.5m
55km WSW of DARWIN CBD


  Time     Wind        Temp  DP   Baro     Rain since   Rain past  Vis(m), Cloud(base in m), Weather
  local        km/h                         9am  last   hr   10m    
Tue 19:30    W  4/  6  24.8 19.0  1014.5    0.0   0.0   0.0   0.0   ----- 
Tue 20:00    W  2/  4  23.8 18.9  1014.6    0.0   0.0   0.0   0.0   ----- 
Tue 20:30    W  4/  6  24.2 18.6  1014.9    0.0   0.0   0.0   0.0   ----- 
Tue 21:00  WSW  2/  4  25.0 20.5  1015.4    0.0   0.0   0.0   0.0   ----- 
Tue 21:30   SW  2/  9  25.1 21.0  1015.8    0.0   0.0   0.0   0.0   ----- 
Tue 22:00    S  2/  6  25.0 20.7  1016.1    0.0   0.0   0.0   0.0   ----- 
Tue 22:30  SSW  2/  6  23.7 19.4  1016.0    0.0   0.0   0.0   0.0   ----- 
Tue 23:00    C  0/  2  22.4 18.8  1015.9    0.0   0.0   0.0   0.0   ----- 
Tue 23:30  SSE  2/  4  21.8 19.0  1015.9    0.0   0.0   0.0   0.0   ----- 
Wed 00:00   SE  2/  4  21.1 18.9  1015.9    0.0   0.0   0.0   0.0   ----- 
Wed 00:30    C  0/  0  20.3 18.6  1015.8    0.0   0.0   0.0   0.0   ----- 
Wed 00:30    C  0/  0  20.3 18.6  1015.8    0.0   0.0  ----   0.0   ----- 

GOVE AIRPORT

Site: 014508
Alt: 51.6m
11km SSE of NHULUNBUY (GOVE)


  Time     Wind        Temp  DP   Baro     Rain since   Rain past  Vis(m), Cloud(base in m), Weather
  local        km/h                         9am  last   hr   10m    
Tue 19:30    S 15/ 26  23.7 19.7  1016.6    0.0   0.0   0.0   0.0   10000|SC 570 OC 990 
Tue 20:00    S 17/ 26  23.8 19.9  1016.8    0.0   0.0   0.0   0.0   10000|OC 990 
Tue 20:30    S 17/ 26  23.5 19.9  1016.9    0.0   0.0   0.0   0.0   10000|SC1050 
Tue 21:00    S 17/ 22  23.3 20.0  1017.1    0.0   0.0   0.0   0.0    9000 
Tue 21:30    S 17/ 26  23.3 20.0  1017.2    0.0   0.0   0.0   0.0    9000|SC 480 SC 900 SC3750 
Tue 22:00    S 15/ 24  23.4 20.3  1017.3    0.0   0.0   0.0   0.0    9000|SC 480 OC 840 
Tue 22:30    S 17/ 24  23.3 20.2  1017.2    0.0   0.0   0.0   0.0   10000|SC 840 
Tue 23:00    S 15/ 26  23.3 20.2  1017.1    0.0   0.0   0.0   0.0   10000|SC 510 BR 780 
Tue 23:30  SSE 13/ 20  23.6 20.2  1017.1    0.0   0.0   0.0   0.0   10000|BR 570 OC 780 
Wed 00:00    S 17/ 22  23.4 20.3  1016.7    0.0   0.0   0.0   0.0   10000|SC 690 BR 840 
Wed 00:30    S 17/ 24  23.3 20.2  1016.6    0.0   0.0   0.0   0.0   10000 
Wed 00:30    S 17/ 24  23.3 20.2  1016.6    0.0   0.0  ----   0.0   10000 

GROOTE EYLANDT AIRPORT

Site: 014518
Alt: 13.7m
202km S of NHULUNBUY (GOVE)


  Time     Wind        Temp  DP   Baro     Rain since   Rain past  Vis(m), Cloud(base in m), Weather
  local        km/h                         9am  last   hr   10m    
Tue 19:30    S  7/ 13  21.6 17.4  1017.2    0.0   0.0   0.0   0.0   10000 
Tue 20:00    S  7/  9  21.2 17.4  1017.6    0.0   0.0   0.0   0.0   10000 
Tue 20:30  SSE  6/  7  21.0 17.4  1017.7    0.0   0.0   0.0   0.0   10000 
Tue 21:00   SE  4/ 11  20.8 17.4  1017.7    0.0   0.0   0.0   0.0   10000 
Tue 21:30   SE  6/  7  20.7 17.5  1018.0    0.0   0.0   0.0   0.0   10000 
Tue 22:00    E  6/  7  20.7 17.7  1018.1    0.0   0.0   0.0   0.0   10000 
Tue 22:30  ESE  4/  6  20.2 17.2  1017.9    0.0   0.0   0.0   0.0   10000 
Tue 23:00    E  6/  7  20.0 17.4  1017.7    0.0   0.0   0.0   0.0   10000 
Tue 23:30    C  0/  0  19.6 17.2  1017.5    0.0   0.0   0.0   0.0   10000 
Wed 00:00    C  0/  0  19.3 17.4  1017.5    0.0   0.0   0.0   0.0   10000 
Wed 00:30    C  0/  0  19.2 17.3  1017.4    0.0   0.0   0.0   0.0   10000 
Wed 00:30    C  0/  0  19.2 17.3  1017.4    0.0   0.0  ----   0.0   10000 

JABIRU AIRPORT

Site: 014198
Alt: 26.5m
1km NW of JABIRU


  Time     Wind        Temp  DP   Baro     Rain since   Rain past  Vis(m), Cloud(base in m), Weather
  local        km/h                         9am  last   hr   10m    
Tue 19:30    C  0/  0  27.5 16.1  1014.8    0.0   0.0   0.0   0.0   ----- 
Tue 20:00    C  0/  0  27.5 15.8  1015.3    0.0   0.0   0.0   0.0   ----- 
Tue 20:30    C  0/  0  27.1 15.1  1015.6    0.0   0.0   0.0   0.0   ----- 
Tue 21:00    C  0/  0  26.9 14.3  1015.9    0.0   0.0   0.0   0.0   ----- 
Tue 21:30    C  0/  0  26.4 13.5  1016.1    0.0   0.0   0.0   0.0   ----- 
Tue 22:00    C  0/  0  26.0 12.8  1016.3    0.0   0.0   0.0   0.0   ----- 
Tue 22:30  ESE 13/ 17  26.0 12.1  1016.5    0.0   0.0   0.0   0.0   ----- 
Tue 23:00    C  0/  0  25.8 11.2  1016.4    0.0   0.0   0.0   0.0   ----- 
Tue 23:30    C  0/  0  25.3 11.1  1016.4    0.0   0.0   0.0   0.0   ----- 
Wed 00:00    C  0/  0  25.2 11.0  1016.4    0.0   0.0   0.0   0.0   ----- 
Wed 00:30    C  0/  6  24.8 11.4  1016.4    0.0   0.0   0.0   0.0   ----- 
Wed 00:30    C  0/  6  24.8 11.4  1016.4    0.0   0.0  ----   0.0   ----- 

KANGAROO FLATS (DEFENCE)

Site: 014982
Alt: 50.0m
37km S of DARWIN


  Time     Wind        Temp  DP   Baro     Rain since   Rain past  Vis(m), Cloud(base in m), Weather
  local        km/h                         9am  last   hr   10m    
Tue 19:30    C  0/  6  26.4 15.1  ------    0.0   0.0   0.0   0.0   ----- 
Tue 20:00  WNW  6/ 11  26.3 17.1  ------    0.0   0.0   0.0   0.0   ----- 
Tue 20:30    C  0/  4  25.2 17.1  ------    0.0   0.0   0.0   0.0   ----- 
Tue 21:00  NNW  2/  6  24.4 17.4  ------    0.0   0.0   0.0   0.0   ----- 
Tue 21:30    C  0/  0  23.8 17.5  ------    0.0   0.0   0.0   0.0   ----- 
Tue 22:00    C  0/  0  22.8 17.7  ------    0.0   0.0   0.0   0.0   ----- 
Tue 22:30    C  0/  0  22.2 17.8  ------    0.0   0.0   0.0   0.0   ----- 
Tue 23:00    C  0/  0  21.6 18.0  ------    0.0   0.0   0.0   0.0   ----- 
Tue 23:30    C  0/  0  21.4 18.0  ------    0.0   0.0   0.0   0.0   ----- 
Wed 00:00    S  2/  6  22.7 18.3  ------    0.0   0.0   0.0   0.0   ----- 
Wed 00:30    C  0/  7  22.5 17.2  ------    0.0   0.0   0.0   0.0   ----- 
Wed 00:30    C  0/  7  22.5 17.2  ------    0.0   0.0  ----   0.0   ----- 

LAJAMANU AIRPORT

Site: 014829
Alt: 315.6m
101km SSW of KALKARINDJI


  Time     Wind        Temp  DP   Baro     Rain since   Rain past  Vis(m), Cloud(base in m), Weather
  local        km/h                         9am  last   hr   10m    
Tue 19:30    C  0/  0  15.7 -6.5  1019.7    0.0   0.0   0.0   0.0   ----- 
Tue 20:00  SSE  7/  9  14.7 -5.6  1020.2    0.0   0.0   0.0   0.0   ----- 
Tue 20:30   SE  9/ 11  15.0 -5.9  1020.2    0.0   0.0   0.0   0.0   ----- 
Tue 21:00   SE  7/  9  14.4 -6.4  1020.5    0.0   0.0   0.0   0.0   ----- 
Tue 21:30  SSE  7/  9  13.8 -6.4  1020.7    0.0   0.0   0.0   0.0   ----- 
Tue 22:00    S  6/ 11  12.1 -6.8  1020.8    0.0   0.0   0.0   0.0   ----- 
Tue 22:30    C  0/  0  11.9 -6.0  1020.9    0.0   0.0   0.0   0.0   ----- 
Tue 23:00    C  0/  0  11.8 -6.1  1020.9    0.0   0.0   0.0   0.0   ----- 
Tue 23:30    C  0/  0  11.2 -6.2  1020.8    0.0   0.0   0.0   0.0   ----- 
Wed 00:00    C  0/  0   9.7 -6.6  1020.9    0.0   0.0   0.0   0.0   ----- 
Wed 00:30    C  0/  0   8.8 -6.6  1020.8    0.0   0.0   0.0   0.0   ----- 
Wed 00:30    C  0/  0   8.8 -6.6  1020.8    0.0   0.0  ----   0.0   ----- 

MANINGRIDA AIRPORT

Site: 014405
Alt: 28.1m
160km ENE of JABIRU


  Time     Wind        Temp  DP   Baro     Rain since   Rain past  Vis(m), Cloud(base in m), Weather
  local        km/h                         9am  last   hr   10m    
Tue 19:30   SE 13/ 19  26.2 16.7  1015.1    0.0   0.0   0.0   0.0    8000 
Tue 20:00   SE 15/ 19  25.9 16.2  1015.5    0.0   0.0   0.0   0.0   10000 
Tue 20:30  ESE 11/ 15  25.3 16.2  1016.0    0.0   0.0   0.0   0.0   10000 
Tue 21:00  ESE 11/ 13  24.7 16.4  1016.1    0.0   0.0   0.0   0.0   10000 
Tue 21:30  ESE 11/ 13  24.2 16.2  1016.3    0.0   0.0   0.0   0.0   10000 
Tue 22:00   SE 13/ 17  23.7 16.0  1016.4    0.0   0.0   0.0   0.0   10000 
Tue 22:30   SE 17/ 22  24.1 15.9  1016.2    0.0   0.0   0.0   0.0   10000 
Tue 23:00  ESE 17/ 20  23.8 15.8  1016.2    0.0   0.0   0.0   0.0   10000 
Tue 23:30   SE 13/ 19  22.9 15.7  1016.1    0.0   0.0   0.0   0.0   10000 
Wed 00:00   SE 15/ 19  22.5 15.8  1015.9    0.0   0.0   0.0   0.0   10000 
Wed 00:30  SSE 15/ 19  22.3 16.1  1016.0    0.0   0.0   0.0   0.0   10000 
Wed 00:30  SSE 15/ 19  22.3 16.1  1016.0    0.0   0.0  ----   0.0   10000 

MCARTHUR RIVER MINE AIRPORT

Site: 014704
Alt: 40.0m
48km SSW of BORROLOOLA


  Time     Wind        Temp  DP   Baro     Rain since   Rain past  Vis(m), Cloud(base in m), Weather
  local        km/h                         9am  last   hr   10m    
Tue 19:30    W  2/  7  18.8  0.9  1017.7    0.0   0.0   0.0   0.0   10000 
Tue 20:00    N  6/  7  18.4  4.6  1018.1    0.0   0.0   0.0   0.0   10000 
Tue 20:30    C  0/  0  17.1  4.8  1018.3    0.0   0.0   0.0   0.0   10000 
Tue 21:00    W  2/ 17  16.4  5.7  1018.5    0.0   0.0   0.0   0.0   10000 
Tue 21:30    N  4/  7  16.6  4.9  1018.6    0.0   0.0   0.0   0.0   10000 
Tue 22:00    C  0/  0  15.6  4.9  1018.5    0.0   0.0   0.0   0.0   10000 
Tue 22:30    C  0/  0  15.0  5.0  1018.5    0.0   0.0   0.0   0.0   10000 
Tue 23:00    N  4/  7  14.5  5.8  1018.3    0.0   0.0   0.0   0.0   10000 
Tue 23:30    C  0/  0  13.9  5.5  1018.4    0.0   0.0   0.0   0.0   10000 
Wed 00:00    C  0/  0  13.5  5.2  1018.4    0.0   0.0   0.0   0.0   10000 
Wed 00:30  WSW  7/ 13  13.2  5.9  1018.7    0.0   0.0   0.0   0.0   10000 
Wed 00:30  WSW  7/ 13  13.2  5.9  1018.7    0.0   0.0  ----   0.0   10000 

MCCLUER ISLAND

Site: 014274
Alt: 1.4m
180km N of JABIRU


  Time     Wind        Temp  DP   Baro     Rain since   Rain past  Vis(m), Cloud(base in m), Weather
  local        km/h                         9am  last   hr   10m    
Tue 19:30    E 28/ 32  26.4 24.6  1014.5    0.0   0.0   0.0   0.0   ----- 
Tue 20:00    E 30/ 33  26.3 24.7  1014.6    0.0   0.0   0.0   0.0   ----- 
Tue 20:30    E 28/ 32  26.4 25.4  1015.0    0.0   0.0   0.0   0.0   ----- 
Tue 21:00    E 28/ 35  26.3 25.1  1015.2    0.0   0.0   0.0   0.0   ----- 
Tue 21:30    E 28/ 32  26.4 25.4  1015.4    0.0   0.0   0.0   0.0   ----- 
Tue 22:00    E 30/ 35  26.5 26.0  1015.5    0.0   0.0   0.0   0.0   ----- 
Tue 22:30    E 28/ 35  26.3 25.6  1015.4    0.0   0.0   0.0   0.0   ----- 
Tue 23:00    E 28/ 33  26.3 25.8  1015.3    0.0   0.0   0.0   0.0   ----- 
Tue 23:30  ESE 26/ 32  25.7 25.0  1015.3    0.0   0.0   0.0   0.0   ----- 
Wed 00:00  ESE 28/ 33  26.2 24.6  1015.1    0.0   0.0   0.0   0.0   ----- 
Wed 00:30  ESE 26/ 32  25.8 23.7  1015.1    0.0   0.0   0.0   0.0   ----- 
Wed 00:30  ESE 26/ 32  25.8 23.7  1015.1    0.0   0.0  ----   0.0   ----- 

MIDDLE POINT

Site: 014041
Alt: 14.1m
52km ESE of DARWIN CBD


  Time     Wind        Temp  DP   Baro     Rain since   Rain past  Vis(m), Cloud(base in m), Weather
  local        km/h                         9am  last   hr   10m    
Tue 19:30    N  7/  9  24.5 16.5  1014.6    0.0   0.0   0.0   0.0   ----- 
Tue 20:00    C  0/  0  23.5 16.5  1014.9    0.0   0.0   0.0   0.0   ----- 
Tue 20:30    C  0/  0  21.9 17.1  1015.3    0.0   0.0   0.0   0.0   ----- 
Tue 21:00    N  2/  4  21.2 16.6  1015.6    0.0   0.0   0.0   0.0   ----- 
Tue 21:30    N  4/  6  20.8 16.8  1015.9    0.0   0.0   0.0   0.0   ----- 
Tue 22:00    C  0/  2  20.5 17.1  1016.1    0.0   0.0   0.0   0.0   ----- 
Tue 22:30    C  0/  2  21.4 18.0  1016.4    0.0   0.0   0.0   0.0   ----- 
Tue 23:00    C  0/  0  22.6 18.6  1016.5    0.0   0.0   0.0   0.0   ----- 
Tue 23:30   NE  4/  6  22.1 18.1  1016.4    0.0   0.0   0.0   0.0   ----- 
Wed 00:00    C  0/  0  20.6 17.0  1016.4    0.0   0.0   0.0   0.0   ----- 
Wed 00:30    C  0/  0  19.3 17.3  1016.4    0.0   0.0   0.0   0.0   ----- 
Wed 00:30    C  0/  0  19.3 17.3  1016.4    0.0   0.0  ----   0.0   ----- 

MILINGIMBI AIRPORT

Site: 014404
Alt: 15.0m
205km W of NHULUNBUY (GOVE)


  Time     Wind        Temp  DP   Baro     Rain since   Rain past  Vis(m), Cloud(base in m), Weather
  local        km/h                         9am  last   hr   10m    
Tue 19:30   SE 11/ 13  25.4 17.3  1015.9    0.0   0.0   0.0   0.0   ----- 
Tue 20:00   SE 13/ 19  25.2 16.9  1016.1    0.0   0.0   0.0   0.0   ----- 
Tue 20:30   SE 15/ 24  25.0 17.2  1016.5    0.0   0.0   0.0   0.0   ----- 
Tue 21:00  ESE 17/ 22  24.7 17.2  1016.9    0.0   0.0   0.0   0.0   ----- 
Tue 21:30   SE 17/ 28  24.3 17.1  1016.9    0.0   0.0   0.0   0.0   ----- 
Tue 22:00   SE 15/ 20  23.8 16.8  1016.9    0.0   0.0   0.0   0.0   ----- 
Tue 22:30   SE 15/ 20  23.5 17.0  1016.8    0.0   0.0   0.0   0.0   ----- 
Tue 23:00   SE 15/ 20  23.1 16.9  1016.8    0.0   0.0   0.0   0.0   ----- 
Tue 23:30   SE 15/ 22  22.9 16.7  1016.8    0.0   0.0   0.0   0.0   ----- 
Wed 00:00   SE 15/ 20  22.5 16.5  1016.6    0.0   0.0   0.0   0.0   ----- 
Wed 00:30   SE 15/ 20  22.3 16.6  1016.4    0.0   0.0   0.0   0.0   ----- 
Wed 00:30   SE 15/ 20  22.3 16.6  1016.4    0.0   0.0  ----   0.0   ----- 

MOUNT BUNDEY NORTH (DEFENCE)

Site: 014983
Alt: 83.0m
122km WNW of DARWIN


  Time     Wind        Temp  DP   Baro     Rain since   Rain past  Vis(m), Cloud(base in m), Weather
  local        km/h                         9am  last   hr   10m    
Tue 19:30    C  0/  0  27.3 14.7  ------    0.0   0.0   0.0   0.0   ----- 
Tue 20:00    S  4/  6  27.0 14.1  ------    0.0   0.0   0.0   0.0   ----- 
Tue 20:30  SSE  6/  9  26.4 13.2  ------    0.0   0.0   0.0   0.0   ----- 
Tue 21:00  SSE  7/  9  26.4 12.1  ------    0.0   0.0   0.0   0.0   ----- 
Tue 21:30  SSE 13/ 19  26.9 10.6  ------    0.0   0.0   0.0   0.0   ----- 
Tue 22:00  SSE 11/ 15  26.7  9.5  ------    0.0   0.0   0.0   0.0   ----- 
Tue 22:30   SE  9/ 15  26.1  9.5  ------    0.0   0.0   0.0   0.0   ----- 
Tue 23:00   SE  7/ 11  25.4  9.3  ------    0.0   0.0   0.0   0.0   ----- 
Tue 23:30   SE  6/  7  24.7  9.4  ------    0.0   0.0   0.0   0.0   ----- 
Wed 00:00   SE  6/  7  24.0  9.6  ------    0.0   0.0   0.0   0.0   ----- 
Wed 00:30   SE  6/  7  23.6  9.9  ------    0.0   0.0   0.0   0.0   ----- 
Wed 00:30   SE  6/  7  23.6  9.9  ------    0.0   0.0  ----   0.0   ----- 

MOUNT BUNDEY SOUTH (DEFENCE)

Site: 014984
Alt: 44.0m
130km SE of DARWIN


  Time     Wind        Temp  DP   Baro     Rain since   Rain past  Vis(m), Cloud(base in m), Weather
  local        km/h                         9am  last   hr   10m    
Tue 19:30  SSE  4/  6  26.6 12.6  1016.7    0.0   0.0   0.0   0.0   ----- 
Tue 20:00   SE  2/  4  25.9 13.1  1016.9    0.0   0.0   0.0   0.0   ----- 
Tue 20:30  ESE  6/  7  26.2 13.0  1017.2    0.0   0.0   0.0   0.0   ----- 
Tue 21:00  ESE  6/  9  25.8 12.6  1017.5    0.0   0.0   0.0   0.0   ----- 
Tue 21:30  ESE  6/ 11  25.4 11.2  1017.8    0.0   0.0   0.0   0.0   ----- 
Tue 22:00   SE  6/  7  25.2 10.3  1018.1    0.0   0.0   0.0   0.0   ----- 
Tue 22:30   SE  6/  9  24.9  9.6  1018.3    0.0   0.0   0.0   0.0   ----- 
Tue 23:00   SE  6/  7  24.7  8.6  1018.4    0.0   0.0   0.0   0.0   ----- 
Tue 23:30  ESE  2/  4  23.9  9.1  1018.4    0.0   0.0   0.0   0.0   ----- 
Wed 00:00    S  2/  4  21.7  9.3  1018.3    0.0   0.0   0.0   0.0   ----- 
Wed 00:30    E  4/  6  22.1  9.9  1018.3    0.0   0.0   0.0   0.0   ----- 
Wed 00:30    E  4/  6  22.1  9.9  1018.3    0.0   0.0  ----   0.0   ----- 

MURGANELLA AIRSTRIP

Site: 014309
Alt: 9.5m
124km N of JABIRU


  Time     Wind        Temp  DP   Baro     Rain since   Rain past  Vis(m), Cloud(base in m), Weather
  local        km/h                         9am  last   hr   10m    
Tue 19:30    C  0/  0  22.4 18.8  1014.8    0.0   0.0   0.0   0.0   ----- 
Tue 20:00    C  0/  0  21.9 19.5  1015.1    0.0   0.0   0.0   0.0   ----- 
Tue 20:30    C  0/  0  21.4 19.3  1015.4    0.0   0.0   0.0   0.0   ----- 
Tue 21:00    C  0/  0  21.2 19.7  1015.6    0.0   0.0   0.0   0.0   ----- 
Tue 21:30    C  0/  0  20.8 19.3  1015.8    0.0   0.0   0.0   0.0   ----- 
Tue 22:00    E  4/  7  22.1 20.7  1016.0    0.0   0.0   0.0   0.0   ----- 
Tue 22:30    E  4/  6  23.2 20.9  1016.0    0.0   0.0   0.0   0.0   ----- 
Tue 23:00  ESE  4/  6  22.7 20.6  1015.9    0.0   0.0   0.0   0.0   ----- 
Tue 23:30  ESE  4/  6  22.1 20.4  1015.8    0.0   0.0   0.0   0.0   ----- 
Wed 00:00  ESE  4/  6  22.0 21.0  1015.6    0.0   0.0   0.0   0.0   ----- 
Wed 00:30  ESE  4/  7  23.1 20.8  1015.6    0.0   0.0   0.0   0.0   ----- 
Wed 00:30  ESE  4/  7  23.1 20.8  1015.6    0.0   0.0  ----   0.0   ----- 

NGAYAWILI

Site: 014517
Alt: 8.1m
133km W of NHULUNBUY (GOVE)


  Time     Wind        Temp  DP   Baro     Rain since   Rain past  Vis(m), Cloud(base in m), Weather
  local        km/h                         9am  last   hr   10m    
Tue 19:30  SSE 15/ 20  24.9 18.6  1015.8    0.0   0.0   0.0   0.0   ----- 
Tue 20:00  SSE 17/ 24  24.7 18.2  1016.0    0.0   0.0   0.0   0.0   ----- 
Tue 20:30  SSE 17/ 28  24.1 17.8  1016.4    0.0   0.0   0.0   0.0   ----- 
Tue 21:00  SSE 15/ 24  23.5 17.9  1016.9    0.0   0.0   0.0   0.0   ----- 
Tue 21:30  SSE 15/ 24  23.1 17.8  1017.2    0.0   0.0   0.0   0.0   ----- 
Tue 22:00  SSE 15/ 24  22.7 18.0  1017.0    0.0   0.0   0.0   0.0   ----- 
Tue 22:30  SSE 15/ 26  22.5 18.3  1016.8    0.0   0.0   0.0   0.0   ----- 
Tue 23:00   SE 17/ 28  22.3 18.3  1016.5    0.0   0.0   0.0   0.0   ----- 
Tue 23:30  SSE 15/ 26  22.0 18.0  1016.4    0.0   0.0   0.0   0.0   ----- 
Wed 00:00   SE 13/ 24  21.7 17.9  1016.5    0.0   0.0   0.0   0.0   ----- 
Wed 00:30   SE 15/ 26  21.4 17.8  1016.3    0.0   0.0   0.0   0.0   ----- 
Wed 00:30   SE 15/ 26  21.4 17.8  1016.3    0.0   0.0  ----   0.0   ----- 

NGUKURR AIRPORT

Site: 014299
Alt: 14.5m
224km NW of BORROLOOLA


  Time     Wind        Temp  DP   Baro     Rain since   Rain past  Vis(m), Cloud(base in m), Weather
  local        km/h                         9am  last   hr   10m    
Tue 19:30   NE  6/  6  22.2  5.6  1017.3   ----  ----  ----   0.0   ----- 
Tue 20:00  ENE  6/  7  21.8  6.1  1017.6   ----  ----  ----   0.0   ----- 
Tue 20:30  ENE  4/  6  20.8  6.0  1018.0   ----  ----  ----   0.0   ----- 
Tue 21:00    C  0/  0  19.4  6.5  1018.4   ----  ----  ----   0.0   ----- 
Tue 21:30   NE  4/  6  18.2  6.4  1018.6   ----  ----  ----   0.0   ----- 
Tue 22:00   NE  4/  6  17.3  6.8  1018.8   ----  ----  ----   0.0   ----- 
Tue 22:30  ENE  2/  4  16.5  7.2  1018.5   ----  ----  ----   0.0   ----- 
Tue 23:00    C  0/  0  16.0  7.7  1018.5   ----  ----  ----   0.0   ----- 
Tue 23:30    C  0/  0  15.9  8.6  1018.2   ----  ----  ----   0.0   ----- 
Wed 00:00    C  0/  0  15.6  8.1  1018.0   ----  ----  ----   0.0   ----- 
Wed 00:30    C  0/  0  14.3  8.3  1017.9   ----  ----  ----   0.0   ----- 
Wed 00:30    C  0/  0  14.3  8.3  1017.9   ----  ----  ----   0.0   ----- 

NOONAMAH AIRSTRIP

Site: 014314
Alt: 17.5m
km of


  Time     Wind        Temp  DP   Baro     Rain since   Rain past  Vis(m), Cloud(base in m), Weather
  local        km/h                         9am  last   hr   10m    
Tue 19:30   NW  4/  7  26.8 16.4  1014.2    0.0   0.0   0.0   0.0   ----- 
Tue 20:00    C  0/  2  26.0 16.8  1014.6    0.0   0.0   0.0   0.0   ----- 
Tue 20:30    C  0/  0  25.2 16.6  1015.0    0.0   0.0   0.0   0.0   ----- 
Tue 21:00  SSW  7/ 11  24.6 17.1  1015.5    0.0   0.0   0.0   0.0   ----- 
Tue 21:30  WSW  4/  6  24.6 17.8  1015.7    0.0   0.0   0.0   0.0   ----- 
Tue 22:00   SW  4/  7  24.3 18.7  1016.0    0.0   0.0   0.0   0.0   ----- 
Tue 22:30   SW  6/  7  24.3 18.2  1016.0    0.0   0.0   0.0   0.0   ----- 
Tue 23:00   SW  6/  9  24.8 18.3  1015.9    0.0   0.0   0.0   0.0   ----- 
Tue 23:30    C  0/  0  24.8 18.3  1016.0    0.0   0.0   0.0   0.0   ----- 
Wed 00:00    C  0/  2  23.9 18.1  1016.1    0.0   0.0   0.0   0.0   ----- 
Wed 00:30    C  0/  0  23.0 17.7  1016.0    0.0   0.0   0.0   0.0   ----- 
Wed 00:30    C  0/  0  23.0 17.7  1016.0    0.0   0.0  ----   0.0   ----- 

OENPELLI AIRPORT

Site: 014310
Alt: 7.5m
39km NNE of JABIRU


  Time     Wind        Temp  DP   Baro     Rain since   Rain past  Vis(m), Cloud(base in m), Weather
  local        km/h                         9am  last   hr   10m    
Tue 19:30  ENE  6/  7  27.6 17.2  1014.8    0.0   0.0   0.0   0.0   ----- 
Tue 20:00  ENE  6/ 11  27.3 16.3  1015.1    0.0   0.0   0.0   0.0   ----- 
Tue 20:30  ENE  2/  4  25.9 15.9  1015.4    0.0   0.0   0.0   0.0   ----- 
Tue 21:00    C  0/  4  25.2 16.1  1015.9    0.0   0.0   0.0   0.0   ----- 
Tue 21:30    E 13/ 20  27.8 13.3  1016.1    0.0   0.0   0.0   0.0   ----- 
Tue 22:00    E  9/ 13  27.1 13.1  1016.3    0.0   0.0   0.0   0.0   ----- 
Tue 22:30  ESE 11/ 17  27.2 13.2  1016.3    0.0   0.0   0.0   0.0   ----- 
Tue 23:00  ESE  9/ 15  26.8 12.8  1016.3    0.0   0.0   0.0   0.0   ----- 
Tue 23:30  ESE  7/ 15  26.2 12.6  1016.2    0.0   0.0   0.0   0.0   ----- 
Wed 00:00   SE  9/ 17  26.1 12.5  1016.1    0.0   0.0   0.0   0.0   ----- 
Wed 00:30   SE  9/ 15  25.8 12.3  1016.2    0.0   0.0   0.0   0.0   ----- 
Wed 00:30   SE  9/ 15  25.8 12.3  1016.2    0.0   0.0  ----   0.0   ----- 

PIRLANGIMPI AIRPORT

Site: 014142
Alt: 18.3m
28km W of PULARUMPI (MELVILLE/BATHURST ISLANDS)


  Time     Wind        Temp  DP   Baro     Rain since   Rain past  Vis(m), Cloud(base in m), Weather
  local        km/h                         9am  last   hr   10m    
Tue 19:30  ESE  4/  6  26.2 17.3  1014.5    0.0   0.0   0.0   0.0   ----- 
Tue 20:00    E  4/  6  25.7 17.4  1014.9    0.0   0.0   0.0   0.0   ----- 
Tue 20:30    E  6/  7  25.1 17.3  1015.4    0.0   0.0   0.0   0.0   ----- 
Tue 21:00    E  6/  9  24.9 17.1  1015.6    0.0   0.0   0.0   0.0   ----- 
Tue 21:30  ENE  6/  7  24.0 17.0  1015.7    0.0   0.0   0.0   0.0   ----- 
Tue 22:00  ENE  4/  7  22.9 16.9  1016.0    0.0   0.0   0.0   0.0   ----- 
Tue 22:30   NE  6/  7  23.2 17.7  1015.9    0.0   0.0   0.0   0.0   ----- 
Tue 23:00   NE  6/  9  23.5 18.4  1015.9    0.0   0.0   0.0   0.0   ----- 
Tue 23:30   NE  7/ 11  23.4 18.5  1015.7    0.0   0.0   0.0   0.0   ----- 
Wed 00:00   NE  4/  7  23.4 18.7  1015.6    0.0   0.0   0.0   0.0   ----- 
Wed 00:30    C  0/  0  22.9 18.7  1015.7    0.0   0.0   0.0   0.0   ----- 
Wed 00:30    C  0/  0  22.9 18.7  1015.7    0.0   0.0  ----   0.0   ----- 

POINT STUART

Site: 014254
Alt: 1.0m
115km ENE of DARWIN CBD


  Time     Wind        Temp  DP   Baro     Rain since   Rain past  Vis(m), Cloud(base in m), Weather
  local        km/h                         9am  last   hr   10m    
Tue 19:30  WNW  7/  9  24.2 19.5  1014.2    0.0   0.0   0.0   0.0   ----- 
Tue 20:00  WNW  6/  7  24.0 19.9  1014.5    0.0   0.0   0.0   0.0   ----- 
Tue 20:30  NNE  2/  6  22.8 19.8  1015.1    0.0   0.0   0.0   0.0   ----- 
Tue 21:00    C  0/  0  22.2 20.1  1015.4    0.0   0.0   0.0   0.0   ----- 
Tue 21:30    C  0/  0  22.4 21.0  1015.7    0.0   0.0   0.0   0.0   ----- 
Tue 22:00    C  0/  0  23.0 21.3  1015.8    0.0   0.0   0.0   0.0   ----- 
Tue 22:30    C  0/  0  23.2 21.8  1015.9    0.0   0.0   0.0   0.0   ----- 
Tue 23:00    S  2/  7  23.9 22.7  1016.0    0.0   0.0   0.0   0.0   ----- 
Tue 23:30    S  9/ 11  23.5 21.6  1015.9    0.0   0.0   0.0   0.0   ----- 
Wed 00:00    S  7/  9  22.9 21.4  1015.8    0.0   0.0   0.0   0.0   ----- 
Wed 00:30    S  9/ 11  22.7 21.5  1015.8    0.0   0.0   0.0   0.0   ----- 
Wed 00:30    S  9/ 11  22.7 21.5  1015.8    0.0   0.0  ----   0.0   ----- 

PORT KEATS AIRPORT

Site: 014948
Alt: 28.0m
137km WSW of NAUIYU (DALY RIVER)


  Time     Wind        Temp  DP   Baro     Rain since   Rain past  Vis(m), Cloud(base in m), Weather
  local        km/h                         9am  last   hr   10m    
Tue 19:30  SSW  9/ 15  24.0  8.0  1015.6    0.0   0.0   0.0   0.0   ----- 
Tue 20:00  SSW  9/ 13  23.4  8.3  1016.1    0.0   0.0   0.0   0.0   ----- 
Tue 20:30  SSW  9/ 11  23.2  8.9  1016.4    0.0   0.0   0.0   0.0   ----- 
Tue 21:00  SSW  9/ 11  23.1  8.8  1016.7    0.0   0.0   0.0   0.0   ----- 
Tue 21:30    S  9/ 13  23.9  8.7  1016.8    0.0   0.0   0.0   0.0   ----- 
Tue 22:00    S 11/ 17  24.0  8.8  1016.9    0.0   0.0   0.0   0.0   ----- 
Tue 22:30    S 11/ 17  24.3  7.9  1016.9    0.0   0.0   0.0   0.0   ----- 
Tue 23:00    S 11/ 15  24.3  7.9  1016.9    0.0   0.0   0.0   0.0   ----- 
Tue 23:30    S  9/ 13  23.2  8.1  1016.8    0.0   0.0   0.0   0.0   ----- 
Wed 00:00    S  7/  9  22.2  8.3  1016.9    0.0   0.0   0.0   0.0   ----- 
Wed 00:30    S  7/ 11  22.5  8.2  1016.9    0.0   0.0   0.0   0.0   ----- 
Wed 00:30    S  7/ 11  22.5  8.2  1016.9    0.0   0.0  ----   0.0   ----- 

TINDAL RAAF

Site: 014932
Alt: 133.6m
98km SE of PINE CREEK


  Time     Wind        Temp  DP   Baro     Rain since   Rain past  Vis(m), Cloud(base in m), Weather
  local        km/h                         9am  last   hr   10m    
Tue 19:30    E  6/  7  24.5  6.3  1016.9    0.0   0.0   0.0   0.0   10000|SC2070 
Tue 20:00   SE  6/  7  22.1  8.2  1017.3    0.0   0.0   0.0   0.0   10000 
Tue 20:30  SSE  7/  9  19.9  9.5  1017.7    0.0   0.0   0.0   0.0   10000 
Tue 21:00    S  9/ 11  18.5  9.6  1018.0    0.0   0.0   0.0   0.0   10000 
Tue 21:30  SSE  9/ 11  19.1  8.7  1018.1    0.0   0.0   0.0   0.0   10000 
Tue 22:00  SSE  9/ 11  17.8  9.2  1018.3    0.0   0.0   0.0   0.0   10000 
Tue 22:30   SE  9/  9  17.7  8.6  1018.3    0.0   0.0   0.0   0.0   10000 
Tue 23:00   SE  7/  9  17.2  8.4  1018.1    0.0   0.0   0.0   0.0   10000 
Tue 23:30   SE  6/  7  16.5  8.7  1018.0    0.0   0.0   0.0   0.0   10000 
Wed 00:00    S 11/ 11  14.9  8.8  1018.1    0.0   0.0   0.0   0.0   10000 
Wed 00:30  SSE  7/  9  15.4  8.4  1018.1    0.0   0.0   0.0   0.0   10000 
Wed 00:30  SSE  7/  9  15.4  8.4  1018.1    0.0   0.0  ----   0.0   10000 

VICTORIA RIVER DOWNS

Site: 014825
Alt: 88.5m
117km N of KALKARINDJI


  Time     Wind        Temp  DP   Baro     Rain since   Rain past  Vis(m), Cloud(base in m), Weather
  local        km/h                         9am  last   hr   10m    
Tue 19:30    S  7/  9  19.9  3.2  1017.3    0.0   0.0   0.0   0.0   ----- 
Tue 20:00  SSW  9/ 11  19.6  0.1  1018.2    0.0   0.0   0.0   0.0   ----- 
Tue 20:30    S  7/  9  19.8 -0.2  1018.4    0.0   0.0   0.0   0.0   ----- 
Tue 21:00    C  0/  4  16.9 -1.7  1018.5    0.0   0.0   0.0   0.0   ----- 
Tue 21:30    C  0/  0  15.5 -1.1  1018.5    0.0   0.0   0.0   0.0   ----- 
Tue 22:00  SSE  9/ 11  16.1  0.3  1018.6    0.0   0.0   0.0   0.0   ----- 
Tue 22:30   SE  2/  7  14.3 -1.3  1019.0    0.0   0.0   0.0   0.0   ----- 
Tue 23:00    S  7/  7  13.8 -0.3  1019.0    0.0   0.0   0.0   0.0   ----- 
Tue 23:30    S  2/  7  13.4 -1.0  1019.1    0.0   0.0   0.0   0.0   ----- 
Wed 00:00    C  0/  0  12.5 -1.1  1019.0    0.0   0.0   0.0   0.0   ----- 
Wed 00:30    C  0/  0  11.7 -0.4  1018.9    0.0   0.0   0.0   0.0   ----- 
Wed 00:30    C  0/  0  11.7 -0.4  1018.9    0.0   0.0  ----   0.0   ----- 

WARRUWI AIRPORT

Site: 014401
Alt: 19.2m
124km NNE of JABIRU


  Time     Wind        Temp  DP   Baro     Rain since   Rain past  Vis(m), Cloud(base in m), Weather
  local        km/h                         9am  last   hr   10m    
Tue 19:30    E  7/ 11  25.2 20.9  1015.4    0.0   0.0   0.0   0.0   ----- 
Tue 20:00    E  6/  9  25.1 21.0  1015.8    0.0   0.0   0.0   0.0   ----- 
Tue 20:30  ESE  6/  7  25.0 21.1  1016.1    0.0   0.0   0.0   0.0   ----- 
Tue 21:00    E  6/  9  25.0 21.7  1016.3    0.0   0.0   0.0   0.0   ----- 
Tue 21:30    E  9/ 13  25.3 22.4  1016.4    0.0   0.0   0.0   0.0   ----- 
Tue 22:00    E  9/ 15  25.3 22.6  1016.5    0.0   0.0   0.0   0.0   ----- 
Tue 22:30    E 11/ 17  25.3 21.6  1016.6    0.0   0.0   0.0   0.0   ----- 
Tue 23:00  ESE 13/ 19  25.4 20.2  1016.4    0.0   0.0   0.0   0.0   ----- 
Tue 23:30   SE 17/ 20  25.4 19.3  1016.2    0.0   0.0   0.0   0.0   ----- 
Wed 00:00   SE 17/ 24  25.1 17.8  1015.9    0.0   0.0   0.0   0.0   ----- 
Wed 00:30   SE 11/ 19  24.8 18.0  1016.1    0.0   0.0   0.0   0.0   ----- 
Wed 00:30   SE 11/ 19  24.8 18.0  1016.1    0.0   0.0  ----   0.0   -----